Aérodrome :
LOGIN :

S'inscrire | Disclaimer

   EN    FR    IT 

 










Légende :    VFR   VFR Marginal   IFR   IFR Intensif   IFR Très Intensif
Visi : 
Plafond : 
>= 8 km
>= 3000ft
5 à 8 km
1000 à 3000 ft
1500m à 5 km
500 à 1000 ft
800 à 1500m
200 à 500 ft
< 800m
< 200 ft
Symboles :   Orages  Brouillard  Fortes neiges  Fortes précipitations  Vent > 20 kt
SIGMETs :   Divers  Orages  Givrage  Turbulence  Onde Orograph.  Cendres Volcan.







- Altitude de l'aérodrome : 63 ft
- Code IATA : BZM


EHWO - Woensdrecht Airbase

DERNIER METAR :
  • 172109Z AUTO 23001KT 9000 BR NCD 00/00 Q1026 BLU

METARs EXPIRÉS :
  • 172058Z AUTO 00000KT 2500 BR NCD 00/00 Q1026 YLO
  • 172055Z AUTO 00000KT 1200 BR NCD 00/00 Q1026 AMB
  • 172036Z AUTO 22001KT 9999 NCD 00/00 Q1026 BLU
  • 172025Z AUTO VRB01KT 9999 NCD 01/01 Q1026 BLU
  • 172005Z AUTO VRB01KT 9000 BR NCD 01/01 Q1026 BLU
  • 172001Z AUTO 00000KT 4100 BR NCD 01/01 Q1026 GRN
  • 171955Z AUTO 29001KT 2500 BR NCD 01/01 Q1026 YLO
  • 171937Z AUTO 00000KT 9999 BKN150 01/01 Q1026 BLU
  • 171932Z AUTO 00000KT 3400 BR OVC150 01/01 Q1026 YLO
  • 171925Z AUTO VRB01KT 9999 BKN150 OVC210 01/01 Q1026 BLU
  • 171908Z AUTO 00000KT 9999 OVC150 02/02 Q1026 BLU
  • 171847Z AUTO 00000KT 1700 BR OVC160 02/02 Q1026 YLO
  • 171855Z AUTO 00000KT 9999 OVC170 02/02 Q1026 BLU
  • 171825Z AUTO 17002KT 9999 OVC170 02/02 Q1026 BLU

TAF TAF EHWO
Valide du 17 à 10h jusqu'au 17 à 22h UTC


170930Z 1710/1722 24004KT 9999 SCT040
Pas de NOTAMs connus pour ce terrain.



MET'MAP, la Météo Aéronautique d'un coup d'oeil ! - Copyright ORBIFLY Décembre 2007 - Disclaimer

ORBIFLY MET'MAP TEAM :

Programmation & Développement : Alexandra Zaïnal
Conception & Développement : Baudouin d'Aumeries
Co-Programmation & Développement : Marc-Olivier Méhu
Soutien technique & logistique : Manuel Goepfert

Contact : metmap@orbifly.com




SOURCES & CREDITS :

   NOAA